Y City, Arkansas
Current Conditions -  °F | °C
As of 6:53 PM on Monday 24 Nov 2014 (Local Time) from KMWT Reporting Station
Clear Clear  
Wind Chill: 43°   Ceiling: Unl
Heat Index: 43°   Visibility: 10mi
Dew Point: 27°   Wind: 0mph
Humidity: 53%   Direction: NA
Pressure: 30"   Gusts: NA
Location:  34.6537°N, 93.7483°W
Report Text: KMWT 250053Z AUTO 00000KT 10SM CLR 06/M03 A3000 RMK AO2 SLP166 T00611028
Loading
Personal Weather Stations






























Interactive Weather Map New forecast layout! Learn more

10-Day Weather Forecast

Advertisements
Track Severe Weather on mobile